createdAt,value
2019-05-02T00:00:41.508Z,7.53
2019-05-02T00:01:41.461Z,7.50
2019-05-02T00:02:41.448Z,7.50
2019-05-02T00:03:42.878Z,7.47
2019-05-02T00:04:41.438Z,7.47
2019-05-02T00:05:41.418Z,7.45
2019-05-02T00:06:42.930Z,7.42
2019-05-02T00:07:41.398Z,7.42
2019-05-02T00:08:41.379Z,7.40
2019-05-02T00:09:47.497Z,7.41
2019-05-02T00:10:42.371Z,7.40
2019-05-02T00:11:41.387Z,7.40
2019-05-02T00:12:41.345Z,7.40
2019-05-02T00:13:41.334Z,7.40
2019-05-02T00:14:41.332Z,7.38
2019-05-02T00:15:41.316Z,7.37
2019-05-02T00:16:45.119Z,7.38
2019-05-02T00:17:42.290Z,7.38
2019-05-02T00:18:41.273Z,7.37
2019-05-02T00:19:44.980Z,7.34
2019-05-02T00:20:42.279Z,7.32
2019-05-02T00:21:43.038Z,7.32
2019-05-02T00:22:41.249Z,7.32
2019-05-02T00:23:41.217Z,7.31
2019-05-02T00:24:41.214Z,7.29
2019-05-02T00:25:41.203Z,7.27
2019-05-02T00:26:41.200Z,7.27
2019-05-02T00:27:41.189Z,7.27
2019-05-02T00:28:42.878Z,7.24
2019-05-02T00:29:42.147Z,7.26
2019-05-02T00:30:41.189Z,7.26
2019-05-02T00:31:41.830Z,7.22
2019-05-02T00:32:42.127Z,7.22
2019-05-02T00:33:41.130Z,7.20
2019-05-02T00:34:41.109Z,7.20
2019-05-02T00:35:46.230Z,7.19
2019-05-02T00:36:42.088Z,7.17
2019-05-02T00:37:41.085Z,7.19
2019-05-02T00:38:41.066Z,7.22
2019-05-02T00:39:45.225Z,7.24
2019-05-02T00:40:42.048Z,7.24
2019-05-02T00:41:41.029Z,7.27
2019-05-02T00:42:41.016Z,7.29
2019-05-02T00:43:41.014Z,7.32
2019-05-02T00:44:42.055Z,7.35
2019-05-02T00:45:41.989Z,7.37
2019-05-02T00:46:40.976Z,7.40
2019-05-02T00:47:42.167Z,7.42
2019-05-02T00:48:41.959Z,7.44
2019-05-02T00:49:40.947Z,7.47
2019-05-02T00:50:45.307Z,7.50
2019-05-02T00:51:41.926Z,7.53
2019-05-02T00:52:40.927Z,7.55
2019-05-02T00:53:44.367Z,7.55
2019-05-02T00:54:41.889Z,7.55
2019-05-02T00:55:40.878Z,7.56
2019-05-02T00:56:44.061Z,7.59
2019-05-02T00:57:40.855Z,7.62
2019-05-02T00:58:40.858Z,7.63
2019-05-02T00:59:42.380Z,7.67
2019-05-02T01:00:40.829Z,7.67
2019-05-02T01:01:40.805Z,7.71
2019-05-02T01:02:41.826Z,7.74
2019-05-02T01:03:40.809Z,7.71
2019-05-02T01:04:40.785Z,7.72
2019-05-02T01:05:40.754Z,7.72
2019-05-02T01:06:40.779Z,7.72
2019-05-02T01:07:40.748Z,7.75
2019-05-02T01:08:40.774Z,7.78
2019-05-02T01:09:42.246Z,7.78
2019-05-02T01:10:41.745Z,7.81
2019-05-02T01:11:40.697Z,7.82
2019-05-02T01:12:44.491Z,7.82
2019-05-02T01:13:41.677Z,7.84
2019-05-02T01:14:40.664Z,7.84
2019-05-02T01:15:44.150Z,7.87
2019-05-02T01:16:40.694Z,7.89
2019-05-02T01:17:40.623Z,7.89
2019-05-02T01:18:41.397Z,7.92
2019-05-02T01:19:40.633Z,7.93
2019-05-02T01:20:40.594Z,7.93
2019-05-02T01:21:40.582Z,7.94
2019-05-02T01:22:40.589Z,7.93
2019-05-02T01:23:40.564Z,7.93
2019-05-02T01:24:41.672Z,7.93
2019-05-02T01:25:40.545Z,7.94
2019-05-02T01:26:40.535Z,7.93
2019-05-02T01:27:41.279Z,7.94
2019-05-02T01:28:40.521Z,7.92
2019-05-02T01:29:40.495Z,7.89
2019-05-02T01:30:42.479Z,7.87
2019-05-02T01:31:40.485Z,7.89
2019-05-02T01:32:40.463Z,7.89
2019-05-02T01:33:41.844Z,7.85
2019-05-02T01:34:40.453Z,7.85
2019-05-02T01:35:40.435Z,7.85
2019-05-02T01:36:41.014Z,7.90
2019-05-02T01:37:40.402Z,7.87
2019-05-02T01:38:40.396Z,7.92
2019-05-02T01:39:42.713Z,7.96
2019-05-02T01:40:40.402Z,7.97
2019-05-02T01:41:40.363Z,7.97
2019-05-02T01:42:44.367Z,7.99
2019-05-02T01:43:41.353Z,7.99
2019-05-02T01:44:40.322Z,8.02
2019-05-02T01:45:41.851Z,7.99
2019-05-02T01:46:40.321Z,7.97
2019-05-02T01:47:40.304Z,7.99
2019-05-02T01:48:45.775Z,7.99
2019-05-02T01:49:41.270Z,7.99
2019-05-02T01:50:40.282Z,7.96
2019-05-02T01:51:41.842Z,7.99
2019-05-02T01:52:41.232Z,7.99
2019-05-02T01:53:40.248Z,8.00
2019-05-02T01:54:40.739Z,8.02
2019-05-02T01:55:41.213Z,8.04
2019-05-02T01:56:40.222Z,8.04
2019-05-02T01:57:44.713Z,8.04
2019-05-02T01:58:41.161Z,8.03
2019-05-02T01:59:40.223Z,8.03
2019-05-02T02:00:40.962Z,8.04
2019-05-02T02:01:40.142Z,8.07
2019-05-02T02:02:40.152Z,8.10
2019-05-02T02:03:40.566Z,8.10
2019-05-02T02:04:41.100Z,8.10
2019-05-02T02:05:40.103Z,8.11
2019-05-02T02:06:43.284Z,8.11
2019-05-02T02:07:40.073Z,8.12
2019-05-02T02:08:40.061Z,8.08
2019-05-02T02:09:43.898Z,8.04
2019-05-02T02:10:43.715Z,8.03
2019-05-02T02:11:40.043Z,8.07
2019-05-02T02:12:41.225Z,8.04
2019-05-02T02:13:41.026Z,8.07
2019-05-02T02:14:40.020Z,8.08
2019-05-02T02:15:40.028Z,8.10
2019-05-02T02:16:40.601Z,8.07
2019-05-02T02:17:39.959Z,8.03
2019-05-02T02:18:39.960Z,8.03
2019-05-02T02:19:40.714Z,8.03
2019-05-02T02:20:39.942Z,8.03
2019-05-02T02:21:42.724Z,8.02
2019-05-02T02:22:41.083Z,8.04
2019-05-02T02:23:39.919Z,8.07
2019-05-02T02:24:39.896Z,8.03
2019-05-02T02:25:39.892Z,8.04
2019-05-02T02:26:43.578Z,8.03
2019-05-02T02:27:40.861Z,8.04
2019-05-02T02:28:39.859Z,8.03
2019-05-02T02:29:44.056Z,8.04
2019-05-02T02:30:40.835Z,8.04
2019-05-02T02:31:46.257Z,8.04
2019-05-02T02:32:40.794Z,8.04
2019-05-02T02:33:40.867Z,8.03
2019-05-02T02:34:40.778Z,8.02
2019-05-02T02:35:49.520Z,8.03
2019-05-02T02:36:40.759Z,8.03
2019-05-02T02:37:52.136Z,8.02
2019-05-02T02:38:40.744Z,8.04
2019-05-02T02:39:39.715Z,8.04
2019-05-02T02:40:39.701Z,8.04
2019-05-02T02:41:45.113Z,8.08
2019-05-02T02:42:40.688Z,8.11
2019-05-02T02:43:39.679Z,8.11
2019-05-02T02:44:41.630Z,8.14
2019-05-02T02:45:39.654Z,8.17
2019-05-02T02:46:40.204Z,8.15
2019-05-02T02:47:39.652Z,8.15
2019-05-02T02:48:40.630Z,8.17
2019-05-02T02:49:39.601Z,8.15
2019-05-02T02:50:42.928Z,8.17
2019-05-02T02:51:40.590Z,8.21
2019-05-02T02:52:44.807Z,8.22
2019-05-02T02:53:40.581Z,8.20
2019-05-02T02:54:43.396Z,8.20
2019-05-02T02:55:40.537Z,8.21
2019-05-02T02:56:40.465Z,8.21
2019-05-02T02:57:39.531Z,8.21
2019-05-02T02:58:45.788Z,8.21
2019-05-02T02:59:40.501Z,8.22
2019-05-02T03:00:41.405Z,8.22
2019-05-02T03:01:40.477Z,8.26
2019-05-02T03:02:47.698Z,8.28
2019-05-02T03:03:40.481Z,8.28
2019-05-02T03:04:44.237Z,8.28
2019-05-02T03:05:40.426Z,8.28
2019-05-02T03:06:45.160Z,8.28
2019-05-02T03:07:40.420Z,8.29
2019-05-02T03:08:46.291Z,8.29
2019-05-02T03:09:40.387Z,8.29
2019-05-02T03:10:44.777Z,8.29
2019-05-02T03:11:40.381Z,8.29
2019-05-02T03:12:41.475Z,8.29
2019-05-02T03:13:51.520Z,8.29
2019-05-02T03:14:41.038Z,8.30
2019-05-02T03:15:40.319Z,8.29
2019-05-02T03:16:46.019Z,8.26
2019-05-02T03:17:40.312Z,8.22
2019-05-02T03:18:40.764Z,8.22
2019-05-02T03:19:39.298Z,8.22
2019-05-02T03:20:40.878Z,8.28
2019-05-02T03:21:39.260Z,8.29
2019-05-02T03:22:41.949Z,8.32
2019-05-02T03:23:39.248Z,8.35
2019-05-02T03:24:44.223Z,8.35
2019-05-02T03:25:50.723Z,8.36
2019-05-02T03:26:40.192Z,8.40
2019-05-02T03:27:40.367Z,8.42
2019-05-02T03:28:39.188Z,8.45
2019-05-02T03:29:43.694Z,8.48
2019-05-02T03:30:40.161Z,8.53
2019-05-02T03:31:39.148Z,8.54
2019-05-02T03:32:39.146Z,8.54
2019-05-02T03:33:51.586Z,8.53
2019-05-02T03:34:52.970Z,8.51
2019-05-02T03:35:44.767Z,8.48
2019-05-02T03:36:40.092Z,8.50
2019-05-02T03:37:44.830Z,8.50
2019-05-02T03:38:40.089Z,8.51
2019-05-02T03:39:39.059Z,8.53
2019-05-02T03:40:41.310Z,8.55
2019-05-02T03:41:39.025Z,8.57
2019-05-02T03:42:44.685Z,8.57
2019-05-02T03:43:40.038Z,8.58
2019-05-02T03:44:38.997Z,8.58
2019-05-02T03:45:40.486Z,8.62
2019-05-02T03:46:38.985Z,8.60
2019-05-02T03:47:43.691Z,8.58
2019-05-02T03:48:39.991Z,8.55
2019-05-02T03:49:41.028Z,8.58
2019-05-02T03:50:39.940Z,8.58
2019-05-02T03:51:38.937Z,8.58
2019-05-02T03:52:43.460Z,8.60
2019-05-02T03:53:39.904Z,8.62
2019-05-02T03:54:48.978Z,8.62
2019-05-02T03:55:39.875Z,8.63
2019-05-02T03:56:44.930Z,8.65
2019-05-02T03:57:42.079Z,8.68
2019-05-02T03:58:38.851Z,8.71
2019-05-02T03:59:41.780Z,8.72
2019-05-02T04:00:38.815Z,8.73
2019-05-02T04:01:41.394Z,8.75
2019-05-02T04:02:38.792Z,8.75
2019-05-02T04:03:40.843Z,8.76
2019-05-02T04:04:38.783Z,8.75
2019-05-02T04:05:40.246Z,8.72
2019-05-02T04:06:38.758Z,8.65
2019-05-02T04:07:40.847Z,8.60
2019-05-02T04:08:38.724Z,8.57
2019-05-02T04:09:41.840Z,8.54
2019-05-02T04:10:38.738Z,8.53
2019-05-02T04:11:40.798Z,8.51
2019-05-02T04:12:38.697Z,8.53
2019-05-02T04:13:38.695Z,8.53
2019-05-02T04:14:39.385Z,8.55
2019-05-02T04:15:38.653Z,8.58
2019-05-02T04:16:38.657Z,8.63
2019-05-02T04:17:38.643Z,8.66
2019-05-02T04:18:38.645Z,8.69
2019-05-02T04:19:38.607Z,8.71
2019-05-02T04:20:43.678Z,8.72
2019-05-02T04:21:39.626Z,8.71
2019-05-02T04:22:42.670Z,8.71
2019-05-02T04:23:39.581Z,8.71
2019-05-02T04:24:38.563Z,8.71
2019-05-02T04:25:38.543Z,8.71
2019-05-02T04:26:38.554Z,8.66
2019-05-02T04:27:38.522Z,8.66
2019-05-02T04:28:38.532Z,8.65
2019-05-02T04:29:38.506Z,8.65
2019-05-02T04:30:38.491Z,8.66
2019-05-02T04:31:38.489Z,8.68
2019-05-02T04:32:42.507Z,8.71
2019-05-02T04:33:38.463Z,8.73
2019-05-02T04:34:38.477Z,8.75
2019-05-02T04:35:38.451Z,8.76
2019-05-02T04:36:38.444Z,8.78
2019-05-02T04:37:40.991Z,8.78
2019-05-02T04:38:47.056Z,8.78
2019-05-02T04:39:39.450Z,8.78
2019-05-02T04:40:41.725Z,8.75
2019-05-02T04:41:42.392Z,8.72
2019-05-02T04:42:39.262Z,8.72
2019-05-02T04:43:43.066Z,8.73
2019-05-02T04:44:52.709Z,8.75
2019-05-02T04:45:52.828Z,8.72
2019-05-02T04:46:39.330Z,8.72
2019-05-02T04:47:39.513Z,8.76
2019-05-02T04:48:43.877Z,8.76
2019-05-02T04:49:39.497Z,8.81
2019-05-02T04:50:38.272Z,8.86
2019-05-02T04:51:38.421Z,8.86
2019-05-02T04:52:47.247Z,8.88
2019-05-02T04:53:44.354Z,8.87
2019-05-02T04:54:39.281Z,8.90
2019-05-02T04:55:38.287Z,8.91
2019-05-02T04:56:42.244Z,8.91
2019-05-02T04:57:46.824Z,8.93
2019-05-02T04:58:40.604Z,8.90
2019-05-02T04:59:39.446Z,8.91
2019-05-02T05:00:39.249Z,8.91
2019-05-02T05:01:43.398Z,8.88
2019-05-02T05:02:40.009Z,8.86
2019-05-02T05:03:38.150Z,8.84
2019-05-02T05:04:46.107Z,8.83
2019-05-02T05:05:40.351Z,8.84
2019-05-02T05:06:40.752Z,8.83
2019-05-02T05:07:43.685Z,8.83
2019-05-02T05:08:41.745Z,8.83
2019-05-02T05:09:40.050Z,8.81
2019-05-02T05:10:41.482Z,8.83
2019-05-02T05:11:39.089Z,8.87
2019-05-02T05:12:41.774Z,8.87
2019-05-02T05:13:38.041Z,8.91
2019-05-02T05:14:42.850Z,8.96
2019-05-02T05:15:48.517Z,8.97
2019-05-02T05:16:40.075Z,8.96
2019-05-02T05:17:37.984Z,8.96
2019-05-02T05:18:38.006Z,8.97
2019-05-02T05:19:37.985Z,9.01
2019-05-02T05:20:40.379Z,9.01
2019-05-02T05:21:37.940Z,9.01
2019-05-02T05:22:44.213Z,9.02
2019-05-02T05:23:38.919Z,9.02
2019-05-02T05:24:42.114Z,9.01
2019-05-02T05:25:38.095Z,8.99
2019-05-02T05:26:40.985Z,9.01
2019-05-02T05:27:37.868Z,9.05
2019-05-02T05:28:40.459Z,9.06
2019-05-02T05:29:38.844Z,9.05
2019-05-02T05:30:45.032Z,9.02
2019-05-02T05:31:38.829Z,8.99
2019-05-02T05:32:37.795Z,9.01
2019-05-02T05:33:37.889Z,9.05
2019-05-02T05:34:38.023Z,9.06
2019-05-02T05:35:38.528Z,9.10
2019-05-02T05:36:37.756Z,9.10
2019-05-02T05:37:38.187Z,9.10
2019-05-02T05:38:40.461Z,9.12
2019-05-02T05:39:38.207Z,9.13
2019-05-02T05:40:37.722Z,9.15
2019-05-02T05:41:37.946Z,9.15
2019-05-02T05:42:38.256Z,9.13
2019-05-02T05:43:38.140Z,9.13
2019-05-02T05:44:39.894Z,9.13
2019-05-02T05:45:48.775Z,9.15
2019-05-02T05:46:42.407Z,9.15
2019-05-02T05:47:37.866Z,9.15
2019-05-02T05:48:40.773Z,9.18
2019-05-02T05:49:37.669Z,9.21
2019-05-02T05:50:41.264Z,9.23
2019-05-02T05:51:37.605Z,9.24
2019-05-02T05:52:38.752Z,9.27
2019-05-02T05:53:37.661Z,9.31
2019-05-02T05:54:40.503Z,9.34
2019-05-02T05:55:38.314Z,9.35
2019-05-02T05:56:42.862Z,9.40
2019-05-02T05:57:38.600Z,9.42
2019-05-02T05:58:39.994Z,9.45
2019-05-02T05:59:38.516Z,9.45
2019-05-02T06:00:38.008Z,9.43
2019-05-02T06:01:38.598Z,9.43
2019-05-02T06:02:50.853Z,9.35
2019-05-02T06:03:43.846Z,9.34
2019-05-02T06:04:39.405Z,9.38
2019-05-02T06:05:38.437Z,9.40
2019-05-02T06:06:37.818Z,9.48
2019-05-02T06:07:41.845Z,9.50
2019-05-02T06:08:38.605Z,9.58
2019-05-02T06:09:37.406Z,9.60
2019-05-02T06:10:39.017Z,9.61
2019-05-02T06:11:38.688Z,9.58
2019-05-02T06:12:37.369Z,9.63
2019-05-02T06:13:38.194Z,9.66
2019-05-02T06:14:37.493Z,9.68
2019-05-02T06:15:39.076Z,9.75
2019-05-02T06:16:37.334Z,9.79
2019-05-02T06:17:37.303Z,9.83
2019-05-02T06:18:41.733Z,9.89
2019-05-02T06:19:38.283Z,9.93
2019-05-02T06:20:37.307Z,9.97
2019-05-02T06:21:40.085Z,9.99
2019-05-02T06:22:38.252Z,10.00
2019-05-02T06:23:41.086Z,9.93
2019-05-02T06:24:37.236Z,9.82
2019-05-02T06:25:37.224Z,9.79
2019-05-02T06:26:37.222Z,9.81
2019-05-02T06:27:37.201Z,9.82
2019-05-02T06:28:41.748Z,9.83
2019-05-02T06:29:38.171Z,9.86
2019-05-02T06:30:37.163Z,9.91
2019-05-02T06:31:38.134Z,9.88
2019-05-02T06:32:38.332Z,9.89
2019-05-02T06:33:37.146Z,9.91
2019-05-02T06:34:38.759Z,9.96
2019-05-02T06:35:38.105Z,9.99
2019-05-02T06:36:38.086Z,10.00
2019-05-02T06:37:37.115Z,10.01
2019-05-02T06:38:37.074Z,10.03
2019-05-02T06:39:37.061Z,10.04
2019-05-02T06:40:39.289Z,10.07
2019-05-02T06:41:38.044Z,10.10
2019-05-02T06:42:38.061Z,10.17
2019-05-02T06:43:41.355Z,10.18
2019-05-02T06:44:38.061Z,10.17
2019-05-02T06:45:37.604Z,10.18
2019-05-02T06:46:37.110Z,10.21
2019-05-02T06:47:41.685Z,10.24
2019-05-02T06:48:37.969Z,10.24
2019-05-02T06:49:36.970Z,10.21
2019-05-02T06:50:39.006Z,10.21
2019-05-02T06:51:36.935Z,10.24
2019-05-02T06:52:36.922Z,10.25
2019-05-02T06:53:41.251Z,10.32
2019-05-02T06:54:37.902Z,10.36
2019-05-02T06:55:38.723Z,10.40
2019-05-02T06:56:36.870Z,10.46
2019-05-02T06:57:36.870Z,10.47
2019-05-02T06:58:37.126Z,10.52
2019-05-02T06:59:36.848Z,10.58
2019-05-02T07:00:55.252Z,10.62
2019-05-02T07:01:37.832Z,10.70
2019-05-02T07:02:36.836Z,10.77
2019-05-02T07:03:41.315Z,10.80
2019-05-02T07:04:37.804Z,10.84
2019-05-02T07:05:36.779Z,10.86
2019-05-02T07:06:56.092Z,10.89
2019-05-02T07:07:37.908Z,10.95
2019-05-02T07:08:36.769Z,10.98
2019-05-02T07:09:40.703Z,11.02
2019-05-02T07:10:44.353Z,11.03
2019-05-02T07:11:38.749Z,11.09
2019-05-02T07:12:36.707Z,11.13
2019-05-02T07:13:41.880Z,11.16
2019-05-02T07:14:37.692Z,11.21
2019-05-02T07:15:38.420Z,11.28
2019-05-02T07:16:38.973Z,11.29
2019-05-02T07:17:38.406Z,11.35
2019-05-02T07:18:36.639Z,11.35
2019-05-02T07:19:36.628Z,11.43
2019-05-02T07:20:40.704Z,11.39
2019-05-02T07:21:37.609Z,11.36
2019-05-02T07:22:38.794Z,11.41
2019-05-02T07:23:36.584Z,11.46
2019-05-02T07:24:36.579Z,11.52
2019-05-02T07:25:39.161Z,11.57
2019-05-02T07:26:36.548Z,11.70
2019-05-02T07:27:38.926Z,11.72
2019-05-02T07:28:40.174Z,11.85
2019-05-02T07:29:37.520Z,11.97
2019-05-02T07:30:36.521Z,12.05
2019-05-02T07:31:36.506Z,12.12
2019-05-02T07:32:36.477Z,12.20
2019-05-02T07:33:37.563Z,12.20
2019-05-02T07:34:36.549Z,12.20
2019-05-02T07:35:36.451Z,12.26
2019-05-02T07:36:38.316Z,12.34
2019-05-02T07:37:36.430Z,12.38
2019-05-02T07:38:36.427Z,12.49
2019-05-02T07:39:40.892Z,12.62
2019-05-02T07:40:37.409Z,12.69
2019-05-02T07:41:37.271Z,12.78
2019-05-02T07:42:36.863Z,12.88
2019-05-02T07:43:37.360Z,12.96
2019-05-02T07:44:36.348Z,12.99
2019-05-02T07:45:40.329Z,13.06
2019-05-02T07:46:50.702Z,13.11
2019-05-02T07:47:40.120Z,13.12
2019-05-02T07:48:36.340Z,13.12
2019-05-02T07:49:36.289Z,13.15
2019-05-02T07:50:36.278Z,13.09
2019-05-02T07:51:36.269Z,13.11
2019-05-02T07:52:36.286Z,13.15
2019-05-02T07:53:36.275Z,13.09
2019-05-02T07:54:36.241Z,13.06
2019-05-02T07:55:40.762Z,13.11
2019-05-02T07:56:37.217Z,13.11
2019-05-02T07:57:36.219Z,13.14
2019-05-02T07:58:38.491Z,12.97
2019-05-02T07:59:37.190Z,12.96
2019-05-02T08:00:37.206Z,13.00
2019-05-02T08:01:36.166Z,13.03
2019-05-02T08:02:36.156Z,13.04
2019-05-02T08:03:36.159Z,13.06
2019-05-02T08:04:36.139Z,13.04
2019-05-02T08:05:36.118Z,12.96
2019-05-02T08:06:40.232Z,12.92
2019-05-02T08:07:37.124Z,12.87
2019-05-02T08:08:36.479Z,12.95
2019-05-02T08:09:39.212Z,13.04
2019-05-02T08:10:37.068Z,13.14
2019-05-02T08:11:37.136Z,13.14
2019-05-02T08:12:36.049Z,13.20
2019-05-02T08:13:36.035Z,13.27
2019-05-02T08:14:36.414Z,13.22
2019-05-02T08:15:36.014Z,13.18
2019-05-02T08:16:35.999Z,13.07
2019-05-02T08:17:35.998Z,12.85
2019-05-02T08:18:35.975Z,12.82
2019-05-02T08:19:37.591Z,12.81
2019-05-02T08:20:36.945Z,12.81
2019-05-02T08:21:35.949Z,12.88
2019-05-02T08:22:35.947Z,12.95
2019-05-02T08:23:35.930Z,13.07
2019-05-02T08:24:37.964Z,13.25
2019-05-02T08:25:35.920Z,13.47
2019-05-02T08:26:35.890Z,13.65
2019-05-02T08:27:36.706Z,13.80
2019-05-02T08:28:35.874Z,13.76
2019-05-02T08:29:35.864Z,13.63
2019-05-02T08:30:40.548Z,13.61
2019-05-02T08:31:36.825Z,13.59
2019-05-02T08:32:35.830Z,13.54
2019-05-02T08:33:35.966Z,13.44
2019-05-02T08:34:35.808Z,13.52
2019-05-02T08:35:35.808Z,13.67
2019-05-02T08:36:35.766Z,13.79
2019-05-02T08:37:41.189Z,13.89
2019-05-02T08:38:36.756Z,13.99
2019-05-02T08:39:35.737Z,14.10
2019-05-02T08:40:35.736Z,13.95
2019-05-02T08:41:35.730Z,13.80
2019-05-02T08:42:35.717Z,13.87
2019-05-02T08:43:40.017Z,13.92
2019-05-02T08:44:49.951Z,13.94
2019-05-02T08:45:38.132Z,14.01
2019-05-02T08:46:35.668Z,13.95
2019-05-02T08:47:35.681Z,13.94
2019-05-02T08:48:36.375Z,13.99
2019-05-02T08:49:36.635Z,13.84
2019-05-02T08:50:35.636Z,13.79
2019-05-02T08:51:35.627Z,13.88
2019-05-02T08:52:36.867Z,13.89
2019-05-02T08:53:36.597Z,13.91
2019-05-02T08:54:35.593Z,13.95
2019-05-02T08:55:35.596Z,13.91
2019-05-02T08:56:35.589Z,13.87
2019-05-02T08:57:36.334Z,13.84
2019-05-02T08:58:35.537Z,13.83
2019-05-02T08:59:35.546Z,13.84
2019-05-02T09:00:37.446Z,13.91
2019-05-02T09:01:35.687Z,13.87
2019-05-02T09:02:41.538Z,13.80
2019-05-02T09:03:54.808Z,13.84
2019-05-02T09:04:36.496Z,13.96
2019-05-02T09:05:36.960Z,13.95
2019-05-02T09:06:36.476Z,14.10
2019-05-02T09:07:37.023Z,14.13
2019-05-02T09:08:35.424Z,14.12
2019-05-02T09:09:35.417Z,14.01
2019-05-02T09:10:37.089Z,14.04
2019-05-02T09:11:36.406Z,14.16
2019-05-02T09:12:36.841Z,14.27
2019-05-02T09:13:36.376Z,14.29
2019-05-02T09:14:35.378Z,14.31
2019-05-02T09:15:39.872Z,14.32
2019-05-02T09:16:36.355Z,14.42
2019-05-02T09:17:38.731Z,14.56
2019-05-02T09:18:40.587Z,14.72
2019-05-02T09:19:36.312Z,14.93
2019-05-02T09:20:35.294Z,14.94
2019-05-02T09:21:36.097Z,15.02
2019-05-02T09:22:35.276Z,14.93
2019-05-02T09:23:37.097Z,14.81
2019-05-02T09:24:35.256Z,14.71
2019-05-02T09:25:35.256Z,14.78
2019-05-02T09:26:38.627Z,14.83
2019-05-02T09:27:35.226Z,14.80
2019-05-02T09:28:35.206Z,14.74
2019-05-02T09:29:37.293Z,14.69
2019-05-02T09:30:36.197Z,14.68
2019-05-02T09:31:36.835Z,14.57
2019-05-02T09:32:37.235Z,14.47
2019-05-02T09:33:36.767Z,14.38
2019-05-02T09:34:36.147Z,14.21
2019-05-02T09:35:35.133Z,14.13
2019-05-02T09:36:38.095Z,14.13
2019-05-02T09:37:35.103Z,14.09
2019-05-02T09:38:35.106Z,14.10
2019-05-02T09:39:36.647Z,14.13
2019-05-02T09:40:35.074Z,14.10
2019-05-02T09:41:36.377Z,14.09
2019-05-02T09:42:35.043Z,14.13
2019-05-02T09:43:39.048Z,14.24
2019-05-02T09:44:35.056Z,14.34
2019-05-02T09:45:37.301Z,14.39
2019-05-02T09:46:35.016Z,14.47
2019-05-02T09:47:52.613Z,14.53
2019-05-02T09:48:35.986Z,14.67
2019-05-02T09:49:35.134Z,14.65
2019-05-02T09:50:38.094Z,14.75
2019-05-02T09:51:34.965Z,14.69
2019-05-02T09:52:39.556Z,14.69
2019-05-02T09:53:35.926Z,14.74
2019-05-02T09:54:36.927Z,14.81
2019-05-02T09:55:35.914Z,14.93
2019-05-02T09:56:34.903Z,14.99
2019-05-02T09:57:34.886Z,15.01
2019-05-02T09:58:34.885Z,14.88
2019-05-02T09:59:34.906Z,14.90
2019-05-02T10:00:36.356Z,14.93
2019-05-02T10:01:34.864Z,14.93
2019-05-02T10:02:34.824Z,14.93
2019-05-02T10:03:34.832Z,14.99
2019-05-02T10:04:34.827Z,14.95
2019-05-02T10:05:34.798Z,14.99
2019-05-02T10:06:34.797Z,15.02
2019-05-02T10:07:34.783Z,15.03
2019-05-02T10:08:38.212Z,15.01
2019-05-02T10:09:35.763Z,15.03
2019-05-02T10:10:37.137Z,15.17
2019-05-02T10:11:35.751Z,15.28
2019-05-02T10:12:34.725Z,15.38
2019-05-02T10:13:34.726Z,15.43
2019-05-02T10:14:34.702Z,15.41
2019-05-02T10:15:34.718Z,15.38
2019-05-02T10:16:34.714Z,15.41
2019-05-02T10:17:37.557Z,15.42
2019-05-02T10:18:35.660Z,15.45
2019-05-02T10:19:34.653Z,15.54
2019-05-02T10:20:36.370Z,15.63
2019-05-02T10:21:34.636Z,15.72
2019-05-02T10:22:39.462Z,15.78
2019-05-02T10:23:35.603Z,15.76
2019-05-02T10:24:34.593Z,15.63
2019-05-02T10:25:38.423Z,15.51
2019-05-02T10:26:35.575Z,15.45
2019-05-02T10:27:38.478Z,15.49
2019-05-02T10:28:35.562Z,15.52
2019-05-02T10:29:34.536Z,15.52
2019-05-02T10:30:36.077Z,15.52
2019-05-02T10:31:37.706Z,15.56
2019-05-02T10:32:34.521Z,15.67
2019-05-02T10:33:37.566Z,15.74
2019-05-02T10:34:34.485Z,15.72
2019-05-02T10:35:40.407Z,15.74
2019-05-02T10:36:35.497Z,15.81
2019-05-02T10:37:38.203Z,15.93
2019-05-02T10:38:35.445Z,16.01
2019-05-02T10:39:37.815Z,16.12
2019-05-02T10:40:34.412Z,16.20
2019-05-02T10:41:39.609Z,16.23
2019-05-02T10:42:35.405Z,16.22
2019-05-02T10:43:34.372Z,16.33
2019-05-02T10:44:36.431Z,16.37
2019-05-02T10:45:34.372Z,16.50
2019-05-02T10:46:37.687Z,16.62
2019-05-02T10:47:36.336Z,16.77
2019-05-02T10:48:34.325Z,16.80
2019-05-02T10:49:34.324Z,16.86
2019-05-02T10:50:34.318Z,16.85
2019-05-02T10:51:34.304Z,16.77
2019-05-02T10:52:34.417Z,16.75
2019-05-02T10:53:34.292Z,16.83
2019-05-02T10:54:37.465Z,16.85
2019-05-02T10:55:34.265Z,16.81
2019-05-02T10:56:34.231Z,16.80
2019-05-02T10:57:34.234Z,16.85
2019-05-02T10:58:35.668Z,16.80
2019-05-02T10:59:34.221Z,16.74
2019-05-02T11:00:34.203Z,16.77
2019-05-02T11:01:34.201Z,16.80
2019-05-02T11:02:34.173Z,16.81
2019-05-02T11:03:37.956Z,16.78
2019-05-02T11:04:35.155Z,16.81
2019-05-02T11:05:37.080Z,16.83
2019-05-02T11:06:37.173Z,16.85
2019-05-02T11:07:35.184Z,16.85
2019-05-02T11:08:36.842Z,16.89
2019-05-02T11:09:35.104Z,16.93
2019-05-02T11:10:34.094Z,16.88
2019-05-02T11:11:34.084Z,16.83
2019-05-02T11:12:41.898Z,16.89
2019-05-02T11:13:35.062Z,17.00
2019-05-02T11:14:34.042Z,17.15
2019-05-02T11:15:34.043Z,17.33
2019-05-02T11:16:34.021Z,17.32
2019-05-02T11:17:36.384Z,17.36
2019-05-02T11:18:42.012Z,17.43
2019-05-02T11:19:34.993Z,17.47
2019-05-02T11:20:33.994Z,17.53
2019-05-02T11:21:33.963Z,17.54
2019-05-02T11:22:33.971Z,17.59
2019-05-02T11:23:33.976Z,17.69
2019-05-02T11:24:33.943Z,17.70
2019-05-02T11:25:33.930Z,17.64
2019-05-02T11:26:33.914Z,17.57
2019-05-02T11:27:33.891Z,17.55
2019-05-02T11:28:33.902Z,17.64
2019-05-02T11:29:33.901Z,17.73
2019-05-02T11:30:33.861Z,17.79
2019-05-02T11:31:33.872Z,17.92
2019-05-02T11:32:33.841Z,18.03
2019-05-02T11:33:33.834Z,18.19
2019-05-02T11:34:33.821Z,18.36
2019-05-02T11:35:33.823Z,18.36
2019-05-02T11:36:33.803Z,18.42
2019-05-02T11:37:33.787Z,18.50
2019-05-02T11:38:34.140Z,18.54
2019-05-02T11:39:43.695Z,18.50
2019-05-02T11:40:34.783Z,18.52
2019-05-02T11:41:33.741Z,18.61
2019-05-02T11:42:33.734Z,18.61
2019-05-02T11:43:37.069Z,18.67
2019-05-02T11:44:34.712Z,18.65
2019-05-02T11:45:33.721Z,18.76
2019-05-02T11:46:37.539Z,18.98
2019-05-02T11:47:34.684Z,19.20
2019-05-02T11:48:33.675Z,19.28
2019-05-02T11:49:33.652Z,19.21
2019-05-02T11:50:35.422Z,19.11
2019-05-02T11:51:33.644Z,19.05
2019-05-02T11:52:37.324Z,18.98
2019-05-02T11:53:33.625Z,19.18
2019-05-02T11:54:33.634Z,19.23
2019-05-02T11:55:33.594Z,19.14
2019-05-02T11:56:33.604Z,19.06
2019-05-02T11:57:33.589Z,19.02
2019-05-02T11:58:33.561Z,18.94
2019-05-02T11:59:33.563Z,18.83
2019-05-02T12:00:33.544Z,18.65
2019-05-02T12:01:37.101Z,18.59
2019-05-02T12:02:34.512Z,18.57
2019-05-02T12:03:36.835Z,18.61
2019-05-02T12:04:33.482Z,18.59
2019-05-02T12:05:35.683Z,18.65
2019-05-02T12:06:33.504Z,18.64
2019-05-02T12:07:33.452Z,18.74
2019-05-02T12:08:33.443Z,18.76
2019-05-02T12:09:33.442Z,18.82
2019-05-02T12:10:36.668Z,18.79
2019-05-02T12:11:33.424Z,18.80
2019-05-02T12:12:36.269Z,18.80
2019-05-02T12:13:33.392Z,18.86
2019-05-02T12:14:36.370Z,18.94
2019-05-02T12:15:33.379Z,18.95
2019-05-02T12:16:33.364Z,18.87
2019-05-02T12:17:33.392Z,18.91
2019-05-02T12:18:33.336Z,18.83
2019-05-02T12:19:33.342Z,18.70
2019-05-02T12:20:36.560Z,18.62
2019-05-02T12:21:33.313Z,18.59
2019-05-02T12:22:33.329Z,18.54
2019-05-02T12:23:36.148Z,18.47
2019-05-02T12:24:36.391Z,18.44
2019-05-02T12:25:34.262Z,18.39
2019-05-02T12:26:33.251Z,18.50
2019-05-02T12:27:33.241Z,18.61
2019-05-02T12:28:33.245Z,18.68
2019-05-02T12:29:33.588Z,18.91
2019-05-02T12:30:36.491Z,19.08
2019-05-02T12:31:33.224Z,19.21
2019-05-02T12:32:33.513Z,19.25
2019-05-02T12:33:33.182Z,19.18
2019-05-02T12:34:33.162Z,19.17
2019-05-02T12:35:33.185Z,19.21
2019-05-02T12:36:33.502Z,19.14
2019-05-02T12:37:33.132Z,19.14
2019-05-02T12:38:33.126Z,19.14
2019-05-02T12:39:33.104Z,19.15
2019-05-02T12:40:33.105Z,19.23
2019-05-02T12:41:33.317Z,19.35
2019-05-02T12:42:33.679Z,19.54
2019-05-02T12:43:33.075Z,19.70
2019-05-02T12:44:33.062Z,19.87
2019-05-02T12:45:33.682Z,19.91
2019-05-02T12:46:33.045Z,19.94
2019-05-02T12:47:33.035Z,19.91
2019-05-02T12:48:33.035Z,19.90
2019-05-02T12:49:33.006Z,19.75
2019-05-02T12:50:32.983Z,19.55
2019-05-02T12:51:33.003Z,19.33
2019-05-02T12:52:32.975Z,18.87
2019-05-02T12:53:32.995Z,18.59
2019-05-02T12:54:32.955Z,18.37
2019-05-02T12:55:32.934Z,18.21
2019-05-02T12:56:32.933Z,18.07
2019-05-02T12:57:32.923Z,18.03
2019-05-02T12:58:32.913Z,18.00
2019-05-02T12:59:32.913Z,17.95
2019-05-02T13:00:32.885Z,17.95
2019-05-02T13:01:33.205Z,17.84
2019-05-02T13:02:32.853Z,17.79
2019-05-02T13:03:32.861Z,17.71
2019-05-02T13:04:32.862Z,17.54
2019-05-02T13:05:32.857Z,17.40